createdAt,value
2023-02-14T00:01:37.014Z,51.35
2023-02-14T00:03:59.940Z,51.05
2023-02-14T00:06:19.960Z,56.22
2023-02-14T00:08:43.530Z,53.97
2023-02-14T00:11:04.838Z,51.67
2023-02-14T00:13:24.351Z,54.25
2023-02-14T00:15:44.120Z,51.13
2023-02-14T00:18:05.538Z,87.43
2023-02-14T00:20:26.730Z,78.35
2023-02-14T00:22:46.449Z,70.45
2023-02-14T00:25:06.730Z,71.10
2023-02-14T00:27:26.273Z,60.25
2023-02-14T00:29:45.664Z,57.95
2023-02-14T00:32:05.528Z,60.90
2023-02-14T00:34:26.145Z,62.20
2023-02-14T00:36:46.477Z,61.97
2023-02-14T00:39:08.689Z,62.70
2023-02-14T00:41:28.473Z,63.22
2023-02-14T00:43:50.658Z,69.95
2023-02-14T00:46:10.597Z,64.05
2023-02-14T00:48:30.469Z,64.93
2023-02-14T00:50:50.409Z,63.80
2023-02-14T00:53:10.262Z,58.88
2023-02-14T00:55:30.017Z,56.55
2023-02-14T00:57:49.746Z,63.35
2023-02-14T01:00:10.412Z,58.20
2023-02-14T01:02:30.290Z,64.05
2023-02-14T01:04:50.278Z,60.20
2023-02-14T01:07:10.458Z,64.28
2023-02-14T01:09:30.211Z,59.03
2023-02-14T01:11:51.388Z,54.88
2023-02-14T01:14:11.662Z,56.65
2023-02-14T01:16:32.002Z,55.45
2023-02-14T01:18:52.178Z,53.70
2023-02-14T01:21:21.653Z,57.97
2023-02-14T01:23:42.098Z,57.20
2023-02-14T01:26:08.497Z,54.10
2023-02-14T01:28:27.965Z,51.15
2023-02-14T01:30:47.691Z,52.50
2023-02-14T01:33:07.780Z,48.83
2023-02-14T01:35:27.850Z,54.08
2023-02-14T01:37:47.885Z,51.42
2023-02-14T01:40:12.083Z,44.67
2023-02-14T01:42:34.071Z,42.67
2023-02-14T01:45:20.013Z,41.97
2023-02-14T01:47:42.026Z,44.33
2023-02-14T01:50:25.551Z,45.92
2023-02-14T01:55:18.718Z,42.60
2023-02-14T01:57:43.563Z,43.65
2023-02-14T02:00:24.064Z,41.60
2023-02-14T02:02:44.907Z,43.35
2023-02-14T02:05:04.814Z,45.75
2023-02-14T02:07:26.749Z,52.05
2023-02-14T02:09:57.722Z,52.78
2023-02-14T02:12:17.583Z,52.08
2023-02-14T02:14:37.761Z,54.90
2023-02-14T02:17:14.807Z,54.17
2023-02-14T02:20:16.135Z,57.83
2023-02-14T02:22:58.794Z,53.38
2023-02-14T02:25:37.183Z,52.85
2023-02-14T02:27:57.199Z,57.95
2023-02-14T02:30:50.178Z,56.67
2023-02-14T02:33:25.565Z,53.80
2023-02-14T02:35:54.008Z,53.42
2023-02-14T02:38:48.180Z,56.72
2023-02-14T02:41:20.398Z,54.78
2023-02-14T02:44:03.816Z,54.58
2023-02-14T02:46:45.718Z,55.40
2023-02-14T02:50:03.721Z,55.95
2023-02-14T02:52:57.717Z,58.28
2023-02-14T02:57:52.989Z,56.75
2023-02-14T03:00:15.603Z,50.25
2023-02-14T03:02:59.287Z,56.35
2023-02-14T03:05:19.557Z,51.88
2023-02-14T03:07:40.683Z,53.20
2023-02-14T03:10:16.602Z,53.15
2023-02-14T03:12:45.245Z,49.33
2023-02-14T03:15:18.692Z,51.15
2023-02-14T03:20:34.708Z,55.53
2023-02-14T03:23:02.077Z,57.08
2023-02-14T03:25:59.618Z,58.00
2023-02-14T03:28:42.827Z,54.25
2023-02-14T03:31:28.495Z,53.03
2023-02-14T03:34:19.484Z,55.60
2023-02-14T03:37:08.223Z,57.53
2023-02-14T03:39:36.842Z,52.47
2023-02-14T03:42:06.098Z,52.47
2023-02-14T03:44:29.949Z,54.88
2023-02-14T03:46:56.242Z,51.85
2023-02-14T03:49:21.477Z,59.42
2023-02-14T03:51:44.290Z,57.63
2023-02-14T03:54:08.730Z,57.28
2023-02-14T03:56:34.634Z,58.72
2023-02-14T03:59:00.117Z,51.65
2023-02-14T04:01:34.308Z,57.42
2023-02-14T04:03:58.476Z,53.72
2023-02-14T04:06:19.820Z,57.10
2023-02-14T04:08:39.600Z,55.13
2023-02-14T04:11:02.306Z,54.70
2023-02-14T04:13:22.396Z,55.88
2023-02-14T04:15:42.581Z,52.65
2023-02-14T04:18:21.278Z,53.47
2023-02-14T04:20:41.075Z,51.67
2023-02-14T04:23:03.196Z,51.38
2023-02-14T04:25:23.453Z,47.42
2023-02-14T04:27:43.489Z,51.55
2023-02-14T04:30:04.313Z,50.00
2023-02-14T04:32:24.065Z,51.63
2023-02-14T04:34:43.921Z,53.42
2023-02-14T04:37:04.239Z,57.63
2023-02-14T04:39:24.655Z,54.58
2023-02-14T04:41:44.671Z,55.97
2023-02-14T04:44:04.937Z,52.78
2023-02-14T04:46:25.145Z,48.10
2023-02-14T04:48:45.305Z,50.45
2023-02-14T04:51:06.196Z,52.25
2023-02-14T04:53:26.070Z,49.95
2023-02-14T04:55:49.096Z,50.80
2023-02-14T04:58:08.697Z,53.28
2023-02-14T05:00:28.870Z,50.10
2023-02-14T05:02:48.982Z,49.70
2023-02-14T05:05:09.179Z,56.58
2023-02-14T05:07:28.981Z,51.67
2023-02-14T05:09:49.086Z,51.58
2023-02-14T05:12:09.245Z,54.03
2023-02-14T05:14:28.695Z,53.58
2023-02-14T05:16:48.248Z,55.10
2023-02-14T05:19:08.833Z,51.47
2023-02-14T05:21:32.311Z,54.33
2023-02-14T05:23:52.138Z,54.53
2023-02-14T05:26:12.132Z,53.63
2023-02-14T05:28:32.256Z,57.88
2023-02-14T05:30:52.256Z,55.38
2023-02-14T05:33:12.497Z,53.95
2023-02-14T05:35:32.799Z,56.38
2023-02-14T05:37:52.690Z,54.15
2023-02-14T05:40:14.443Z,51.65
2023-02-14T05:42:34.357Z,56.17
2023-02-14T05:44:53.891Z,51.92
2023-02-14T05:47:14.472Z,51.97
2023-02-14T05:49:35.412Z,53.75
2023-02-14T05:51:55.352Z,55.55
2023-02-14T05:54:15.651Z,60.47
2023-02-14T05:56:35.140Z,63.13
2023-02-14T05:58:54.884Z,58.67
2023-02-14T06:01:14.524Z,63.97
2023-02-14T06:03:34.834Z,56.15
2023-02-14T06:05:55.096Z,57.28
2023-02-14T06:08:15.425Z,56.42
2023-02-14T06:10:35.624Z,49.03
2023-02-14T06:12:55.821Z,48.92
2023-02-14T06:15:16.012Z,55.65
2023-02-14T06:17:35.809Z,51.17
2023-02-14T06:19:55.881Z,51.55
2023-02-14T06:22:15.789Z,48.08
2023-02-14T06:24:36.349Z,51.58
2023-02-14T06:26:57.992Z,48.25
2023-02-14T06:29:17.853Z,50.15
2023-02-14T06:31:38.114Z,58.60
2023-02-14T06:33:58.561Z,57.28
2023-02-14T06:36:20.294Z,59.17
2023-02-14T06:38:40.906Z,60.17
2023-02-14T06:41:06.076Z,54.67
2023-02-14T06:43:26.099Z,57.22
2023-02-14T06:45:46.261Z,52.83
2023-02-14T06:48:05.978Z,52.92
2023-02-14T06:50:26.181Z,55.63
2023-02-14T06:52:45.920Z,55.75
2023-02-14T06:55:06.368Z,54.15
2023-02-14T06:57:26.534Z,53.97
2023-02-14T06:59:46.580Z,60.45
2023-02-14T07:02:06.437Z,55.20
2023-02-14T07:04:26.587Z,54.80
2023-02-14T07:06:46.534Z,52.22
2023-02-14T07:09:06.802Z,59.70
2023-02-14T07:11:27.929Z,63.75
2023-02-14T07:13:49.432Z,65.40
2023-02-14T07:16:10.483Z,63.72
2023-02-14T07:18:30.181Z,75.97
2023-02-14T07:20:50.810Z,61.65
2023-02-14T07:23:11.098Z,54.95
2023-02-14T07:25:31.361Z,53.97
2023-02-14T07:27:51.539Z,54.58
2023-02-14T07:30:12.565Z,55.70
2023-02-14T07:32:33.437Z,60.95
2023-02-14T07:34:53.427Z,59.08
2023-02-14T07:37:13.621Z,55.70
2023-02-14T07:39:34.164Z,57.38
2023-02-14T07:41:53.943Z,63.15
2023-02-14T07:44:13.953Z,60.55
2023-02-14T07:46:33.715Z,54.63
2023-02-14T07:48:53.878Z,66.32
2023-02-14T07:51:13.990Z,59.92
2023-02-14T07:53:34.146Z,49.92
2023-02-14T07:55:54.088Z,45.13
2023-02-14T07:58:13.868Z,53.38
2023-02-14T08:00:33.489Z,52.35
2023-02-14T08:02:55.282Z,47.75
2023-02-14T08:05:15.499Z,42.30
2023-02-14T08:07:35.406Z,52.20
2023-02-14T08:09:55.551Z,65.40
2023-02-14T08:12:33.872Z,46.60
2023-02-14T08:14:53.955Z,47.85
2023-02-14T08:17:13.633Z,47.00
2023-02-14T08:19:33.643Z,52.08
2023-02-14T08:21:53.892Z,48.30
2023-02-14T08:24:13.712Z,43.42
2023-02-14T08:26:33.275Z,42.88
2023-02-14T08:28:53.644Z,27.48
2023-02-14T08:31:36.757Z,20.27
2023-02-14T08:33:56.854Z,18.95
2023-02-14T08:36:17.206Z,23.67
2023-02-14T08:38:37.121Z,24.17
2023-02-14T08:41:01.822Z,20.05
2023-02-14T08:43:22.448Z,21.50
2023-02-14T08:45:42.374Z,18.17
2023-02-14T08:48:05.053Z,17.50
2023-02-14T08:50:24.693Z,18.53
2023-02-14T08:52:44.709Z,15.48
2023-02-14T08:55:05.017Z,15.05
2023-02-14T08:57:27.001Z,13.88
2023-02-14T08:59:47.890Z,13.93
2023-02-14T09:02:12.865Z,13.50
2023-02-14T09:04:35.500Z,13.32
2023-02-14T09:06:55.396Z,13.18
2023-02-14T09:09:16.868Z,13.13
2023-02-14T09:11:36.514Z,14.38
2023-02-14T09:13:57.036Z,16.83
2023-02-14T09:16:18.479Z,17.35
2023-02-14T09:18:38.881Z,14.93
2023-02-14T09:20:59.196Z,16.05
2023-02-14T09:23:18.938Z,15.05
2023-02-14T09:25:38.768Z,16.05
2023-02-14T09:27:58.965Z,13.73
2023-02-14T09:30:19.117Z,12.85
2023-02-14T09:32:38.883Z,14.18
2023-02-14T09:34:59.579Z,13.48
2023-02-14T09:37:19.978Z,17.63
2023-02-14T09:39:40.380Z,20.05
2023-02-14T09:42:41.711Z,18.27
2023-02-14T09:45:09.064Z,17.15
2023-02-14T09:47:51.543Z,18.73
2023-02-14T09:50:20.136Z,28.65
2023-02-14T09:52:40.280Z,27.73
2023-02-14T09:55:02.852Z,20.67
2023-02-14T09:57:45.983Z,21.60
2023-02-14T10:00:37.861Z,19.17
2023-02-14T10:03:11.732Z,20.35
2023-02-14T10:05:49.740Z,21.10
2023-02-14T10:08:28.134Z,22.83
2023-02-14T10:10:58.910Z,25.23
2023-02-14T10:13:32.350Z,20.05
2023-02-14T10:18:31.870Z,22.02
2023-02-14T10:20:57.981Z,28.48
2023-02-14T10:23:27.347Z,20.45
2023-02-14T10:26:16.541Z,20.50
2023-02-14T10:28:46.597Z,17.15
2023-02-14T10:31:26.912Z,15.15
2023-02-14T10:34:04.576Z,17.55
2023-02-14T10:36:55.294Z,28.80
2023-02-14T10:39:30.296Z,15.77
2023-02-14T10:42:09.028Z,19.63
2023-02-14T10:44:59.370Z,26.20
2023-02-14T10:47:25.274Z,12.82
2023-02-14T10:49:49.678Z,11.25
2023-02-14T10:52:34.887Z,17.25
2023-02-14T10:55:05.055Z,13.90
2023-02-14T10:57:40.051Z,26.65
2023-02-14T11:00:12.278Z,10.98
2023-02-14T11:02:44.399Z,12.87
2023-02-14T11:05:05.337Z,7.07
2023-02-14T11:07:25.149Z,4.68
2023-02-14T11:09:45.515Z,9.15
2023-02-14T11:12:05.859Z,4.68
2023-02-14T11:14:29.471Z,11.80
2023-02-14T11:16:53.628Z,13.73
2023-02-14T11:19:23.489Z,12.93
2023-02-14T11:21:45.241Z,16.52
2023-02-14T11:24:26.557Z,8.88
2023-02-14T11:26:49.170Z,8.70
2023-02-14T11:29:25.741Z,6.20
2023-02-14T11:31:45.804Z,11.23
2023-02-14T11:34:28.119Z,15.88
2023-02-14T11:36:47.960Z,5.65
2023-02-14T11:39:34.055Z,9.25
2023-02-14T11:41:58.202Z,3.78
2023-02-14T11:44:31.079Z,2.20
2023-02-14T11:46:53.702Z,1.85
2023-02-14T11:49:23.586Z,2.72
2023-02-14T11:51:44.827Z,1.20
2023-02-14T11:54:05.627Z,2.10
2023-02-14T11:56:42.821Z,1.60
2023-02-14T11:59:05.015Z,2.03
2023-02-14T12:01:32.147Z,2.63
2023-02-14T12:03:55.049Z,2.55
2023-02-14T12:06:26.740Z,1.77
2023-02-14T12:08:46.571Z,1.70
2023-02-14T12:11:20.129Z,2.15
2023-02-14T12:13:40.254Z,1.65
2023-02-14T12:16:00.407Z,1.27
2023-02-14T12:18:39.978Z,1.95
2023-02-14T12:21:37.049Z,1.70
2023-02-14T12:24:05.230Z,2.40
2023-02-14T12:26:31.510Z,3.60
2023-02-14T12:29:39.203Z,2.95
2023-02-14T12:32:21.775Z,5.97
2023-02-14T12:34:44.037Z,2.25
2023-02-14T12:37:46.943Z,3.50
2023-02-14T12:40:20.909Z,2.67
2023-02-14T12:42:49.752Z,3.60
2023-02-14T12:45:46.585Z,4.63
2023-02-14T12:48:25.157Z,4.88
2023-02-14T12:50:52.958Z,2.85
2023-02-14T12:53:15.666Z,3.10
2023-02-14T12:55:45.027Z,2.92
2023-02-14T12:58:11.545Z,3.13
2023-02-14T13:00:57.035Z,3.80
2023-02-14T13:03:46.661Z,3.45
2023-02-14T13:06:29.569Z,2.42
2023-02-14T13:09:13.827Z,2.88
2023-02-14T13:11:36.253Z,3.95
2023-02-14T13:14:14.196Z,6.22
2023-02-14T13:16:43.483Z,3.13
2023-02-14T13:19:12.872Z,2.95
2023-02-14T13:21:36.854Z,3.22
2023-02-14T13:24:10.471Z,2.97
2023-02-14T13:26:41.003Z,3.63
2023-02-14T13:29:02.961Z,3.45
2023-02-14T13:31:23.424Z,4.13
2023-02-14T13:33:55.296Z,3.28
2023-02-14T13:36:16.132Z,2.75
2023-02-14T13:39:02.993Z,2.03
2023-02-14T13:41:23.529Z,3.03
2023-02-14T13:44:00.952Z,3.00
2023-02-14T13:46:31.613Z,2.58
2023-02-14T13:49:24.910Z,2.65
2023-02-14T13:51:56.580Z,2.00
2023-02-14T13:54:47.620Z,2.13
2023-02-14T13:57:29.330Z,2.70
2023-02-14T14:00:21.164Z,2.92
2023-02-14T14:02:45.143Z,2.28
2023-02-14T14:05:30.069Z,2.85
2023-02-14T14:08:22.677Z,2.60
2023-02-14T14:10:47.277Z,2.55
2023-02-14T14:13:06.987Z,3.15
2023-02-14T14:15:26.783Z,2.60
2023-02-14T14:18:08.740Z,2.80
2023-02-14T14:20:29.989Z,3.28
2023-02-14T14:22:56.105Z,2.75
2023-02-14T14:25:40.377Z,2.97
2023-02-14T14:28:00.477Z,3.25
2023-02-14T14:30:31.312Z,2.95
2023-02-14T14:32:51.513Z,3.30
2023-02-14T14:35:23.898Z,3.58
2023-02-14T14:37:51.245Z,4.60
2023-02-14T14:40:19.565Z,5.38
2023-02-14T14:42:40.044Z,3.58
2023-02-14T14:45:03.661Z,3.28
2023-02-14T14:47:27.831Z,2.83
2023-02-14T14:49:48.092Z,5.28
2023-02-14T14:52:32.369Z,4.13
2023-02-14T14:54:52.676Z,3.80
2023-02-14T14:57:17.391Z,5.55
2023-02-14T14:59:39.692Z,3.40
2023-02-14T15:01:59.820Z,5.80
2023-02-14T15:04:27.731Z,4.10
2023-02-14T15:06:49.358Z,4.43
2023-02-14T15:09:35.684Z,5.47
2023-02-14T15:12:16.644Z,4.32
2023-02-14T15:14:42.969Z,4.22
2023-02-14T15:17:04.639Z,6.18
2023-02-14T15:19:36.420Z,5.55
2023-02-14T15:21:57.030Z,5.80
2023-02-14T15:24:18.715Z,4.82
2023-02-14T15:26:39.135Z,6.60
2023-02-14T15:29:02.845Z,5.97
2023-02-14T15:31:24.627Z,5.40
2023-02-14T15:33:44.766Z,4.53
2023-02-14T15:36:08.390Z,6.05
2023-02-14T15:38:29.888Z,5.88
2023-02-14T15:40:51.270Z,5.53
2023-02-14T15:43:17.627Z,5.40
2023-02-14T15:45:37.400Z,5.65
2023-02-14T15:48:01.627Z,5.95
2023-02-14T15:50:25.304Z,6.40
2023-02-14T15:52:46.795Z,6.55
2023-02-14T15:55:11.434Z,5.97
2023-02-14T15:57:33.372Z,5.82
2023-02-14T15:59:53.424Z,5.82
2023-02-14T16:02:37.045Z,6.35
2023-02-14T16:05:16.606Z,7.07
2023-02-14T16:07:38.578Z,6.15
2023-02-14T16:10:46.865Z,7.07
2023-02-14T16:13:19.330Z,7.60
2023-02-14T16:15:54.921Z,9.97
2023-02-14T16:18:31.467Z,16.55
2023-02-14T16:20:51.177Z,19.50
2023-02-14T16:23:23.500Z,14.55
2023-02-14T16:25:43.811Z,25.50
2023-02-14T16:28:03.905Z,22.30
2023-02-14T16:30:23.537Z,15.93
2023-02-14T16:32:52.854Z,10.48
2023-02-14T16:35:18.935Z,15.00
2023-02-14T16:37:38.723Z,11.10
2023-02-14T16:40:00.750Z,10.35
2023-02-14T16:42:20.695Z,10.37
2023-02-14T16:44:40.788Z,9.60
2023-02-14T16:47:04.422Z,10.82
2023-02-14T16:49:24.922Z,10.32
2023-02-14T16:51:46.134Z,13.88
2023-02-14T16:54:10.667Z,17.13
2023-02-14T16:56:36.802Z,10.82
2023-02-14T16:58:59.437Z,8.85
2023-02-14T17:03:41.691Z,7.25
2023-02-14T17:06:02.261Z,7.93
2023-02-14T17:08:22.029Z,8.93
2023-02-14T17:10:45.662Z,12.70
2023-02-14T17:13:07.059Z,13.70
2023-02-14T17:15:27.977Z,18.00
2023-02-14T17:17:49.191Z,17.13
2023-02-14T17:20:09.672Z,16.48
2023-02-14T17:22:29.762Z,22.65
2023-02-14T17:24:49.332Z,22.90
2023-02-14T17:27:09.216Z,21.20
2023-02-14T17:29:29.076Z,23.65
2023-02-14T17:31:49.397Z,18.85
2023-02-14T17:34:10.573Z,98.63
2023-02-14T17:36:31.633Z,68.60
2023-02-14T17:38:53.642Z,38.47
2023-02-14T17:41:24.489Z,76.65
2023-02-14T17:43:45.490Z,56.30
2023-02-14T17:46:05.507Z,25.17
2023-02-14T17:48:25.101Z,19.98
2023-02-14T17:50:45.061Z,16.25
2023-02-14T17:53:04.860Z,31.75
2023-02-14T17:55:24.629Z,36.47
2023-02-14T17:57:44.751Z,24.45
2023-02-14T18:00:05.388Z,25.75
2023-02-14T18:02:25.743Z,28.20
2023-02-14T18:04:47.607Z,26.35
2023-02-14T18:07:07.794Z,30.67
2023-02-14T18:09:27.885Z,26.33
2023-02-14T18:11:49.188Z,21.70
2023-02-14T18:14:09.341Z,26.48
2023-02-14T18:16:29.469Z,22.60
2023-02-14T18:18:49.934Z,27.25
2023-02-14T18:21:13.633Z,22.20
2023-02-14T18:23:33.753Z,42.20
2023-02-14T18:25:55.812Z,43.45
2023-02-14T18:28:15.791Z,43.20
2023-02-14T18:30:37.267Z,21.77
2023-02-14T18:32:56.827Z,19.92
2023-02-14T18:35:16.642Z,24.85
2023-02-14T18:37:36.204Z,49.22
2023-02-14T18:39:55.907Z,34.92
2023-02-14T18:42:16.005Z,33.70
2023-02-14T18:44:35.984Z,24.05
2023-02-14T18:46:55.793Z,32.70
2023-02-14T18:49:15.967Z,21.35
2023-02-14T18:51:38.488Z,16.83
2023-02-14T18:54:00.295Z,25.65
2023-02-14T18:56:22.918Z,19.87
2023-02-14T18:58:49.794Z,56.65
2023-02-14T19:01:16.963Z,52.20
2023-02-14T19:03:37.896Z,24.95
2023-02-14T19:05:59.493Z,23.77
2023-02-14T19:08:19.581Z,36.70
2023-02-14T19:10:39.280Z,39.67
2023-02-14T19:12:59.091Z,61.53
2023-02-14T19:15:19.139Z,48.45
2023-02-14T19:17:39.151Z,29.40
2023-02-14T19:19:59.154Z,45.35
2023-02-14T19:22:19.691Z,40.17
2023-02-14T19:24:39.178Z,20.10
2023-02-14T19:26:59.163Z,20.30
2023-02-14T19:29:19.909Z,19.80
2023-02-14T19:31:42.268Z,17.45
2023-02-14T19:34:03.851Z,21.48
2023-02-14T19:36:23.806Z,46.95
2023-02-14T19:38:47.831Z,37.97
2023-02-14T19:41:18.896Z,18.63
2023-02-14T19:43:39.269Z,23.35
2023-02-14T19:45:59.216Z,23.42
2023-02-14T19:48:19.261Z,37.55
2023-02-14T19:50:38.990Z,26.85
2023-02-14T19:52:59.031Z,21.45
2023-02-14T19:55:22.482Z,21.23
2023-02-14T19:57:46.548Z,21.48
2023-02-14T20:00:09.683Z,72.68
2023-02-14T20:02:29.535Z,81.22
2023-02-14T20:04:49.580Z,52.15
2023-02-14T20:07:09.407Z,40.60
2023-02-14T20:09:29.011Z,37.83
2023-02-14T20:11:54.194Z,44.13
2023-02-14T20:14:16.842Z,46.70
2023-02-14T20:16:36.985Z,48.03
2023-02-14T20:18:58.305Z,36.85
2023-02-14T20:21:24.879Z,56.35
2023-02-14T20:23:45.137Z,59.30
2023-02-14T20:26:09.952Z,54.22
2023-02-14T20:28:30.171Z,37.13
2023-02-14T20:30:50.328Z,56.58
2023-02-14T20:33:10.264Z,78.03
2023-02-14T20:35:33.359Z,117.47
2023-02-14T20:37:54.317Z,53.88
2023-02-14T20:40:15.488Z,47.35
2023-02-14T20:42:35.175Z,60.22
2023-02-14T20:44:55.329Z,66.60
2023-02-14T20:47:16.362Z,37.92
2023-02-14T20:49:36.883Z,39.72
2023-02-14T20:51:57.745Z,104.57
2023-02-14T20:54:19.369Z,60.55
2023-02-14T20:56:39.720Z,31.40
2023-02-14T20:59:01.680Z,19.90
2023-02-14T21:01:25.643Z,21.60
2023-02-14T21:03:50.836Z,27.25
2023-02-14T21:06:11.592Z,32.83
2023-02-14T21:08:31.847Z,25.63
2023-02-14T21:10:51.761Z,44.67
2023-02-14T21:13:12.023Z,56.65
2023-02-14T21:15:32.463Z,63.65
2023-02-14T21:17:53.477Z,25.30
2023-02-14T21:20:14.308Z,37.50
2023-02-14T21:22:34.093Z,26.40
2023-02-14T21:24:54.044Z,26.33
2023-02-14T21:27:14.684Z,22.73
2023-02-14T21:29:34.599Z,21.92
2023-02-14T21:31:55.729Z,50.40
2023-02-14T21:34:17.167Z,70.45
2023-02-14T21:36:36.856Z,79.53
2023-02-14T21:38:58.389Z,97.22
2023-02-14T21:41:21.049Z,109.80
2023-02-14T21:43:42.723Z,65.38
2023-02-14T21:46:04.540Z,70.28
2023-02-14T21:48:42.973Z,59.38
2023-02-14T21:51:06.618Z,49.28
2023-02-14T21:53:26.926Z,74.05
2023-02-14T21:55:47.135Z,85.78
2023-02-14T21:58:07.300Z,33.58
2023-02-14T22:00:27.580Z,33.47
2023-02-14T22:02:48.038Z,37.47
2023-02-14T22:05:08.259Z,27.50
2023-02-14T22:07:28.492Z,26.48
2023-02-14T22:09:48.499Z,90.82
2023-02-14T22:12:08.263Z,90.05
2023-02-14T22:14:28.596Z,45.05
2023-02-14T22:16:48.266Z,53.10
2023-02-14T22:19:12.964Z,79.75
2023-02-14T22:21:33.642Z,68.93
2023-02-14T22:23:54.937Z,48.10
2023-02-14T22:26:25.297Z,99.47
2023-02-14T22:28:46.861Z,111.28
2023-02-14T22:31:07.102Z,86.55
2023-02-14T22:33:26.907Z,77.00
2023-02-14T22:35:46.967Z,70.63
2023-02-14T22:38:07.004Z,61.40
2023-02-14T22:40:26.595Z,72.65
2023-02-14T22:42:46.240Z,67.55
2023-02-14T22:45:06.846Z,73.05
2023-02-14T22:47:26.703Z,33.50
2023-02-14T22:49:46.734Z,32.42
2023-02-14T22:52:06.684Z,35.55
2023-02-14T22:54:26.818Z,29.35
2023-02-14T22:56:48.605Z,30.98
2023-02-14T22:59:23.331Z,40.30
2023-02-14T23:01:44.504Z,40.13
2023-02-14T23:04:04.810Z,30.88
2023-02-14T23:06:26.466Z,27.05
2023-02-14T23:08:47.505Z,31.45
2023-02-14T23:11:31.528Z,39.88
2023-02-14T23:14:10.101Z,42.10
2023-02-14T23:16:49.100Z,33.05
2023-02-14T23:19:43.752Z,43.10
2023-02-14T23:22:09.410Z,71.90
2023-02-14T23:24:29.709Z,74.65
2023-02-14T23:26:49.907Z,69.00
2023-02-14T23:29:09.857Z,41.13
2023-02-14T23:31:29.946Z,41.30
2023-02-14T23:33:51.497Z,48.70
2023-02-14T23:36:11.588Z,54.83
2023-02-14T23:38:31.680Z,42.97
2023-02-14T23:41:09.517Z,41.55
2023-02-14T23:43:29.103Z,32.08
2023-02-14T23:45:48.726Z,30.45
2023-02-14T23:48:08.869Z,32.35
2023-02-14T23:50:28.758Z,34.47
2023-02-14T23:52:48.898Z,32.08
2023-02-14T23:55:08.948Z,30.23
2023-02-14T23:57:28.799Z,29.42
2023-02-14T23:59:48.518Z,28.48
